Orbital elements of COSMOS 970 DEB
| Launched | 20 December 1977 |
| Flight ended | – |
| Launch site | Tyuratam Missile and Space Center, Kazakhstan (Also known as Baikonur Cosmodrome) |
| Owner | Commonwealth of Independent States (former USSR) |
| NORAD ID | 64970 |
| Date fetched |
Epoch osculation |
Inc. [°] |
Ecc. | RA asc node [hr] |
Arg Peri. [°] |
Mean anom [°] |
Mean motion [rev/day] |
Abs. mag |
| Date fetched |
Epoch osculation |
Inc. [°] |
Ecc. | RA asc node [hr] |
Arg Peri. [°] |
Mean anom [°] |
Mean motion [rev/day] |
Abs. mag |
| 2026 May 03 17:57 | 2026 Apr 30 13:31:34 | 64.8386 | 0.01255 | 21.7455 | 293.8887 | 64.9040 | 13.32065 | – |
| 2026 May 02 17:57 | 2026 Apr 30 13:31:34 | 64.8386 | 0.01255 | 21.7455 | 293.8887 | 64.9040 | 13.32065 | – |
| 2026 May 01 17:56 | 2026 Apr 30 13:31:34 | 64.8386 | 0.01255 | 21.7455 | 293.8887 | 64.9040 | 13.32065 | – |
| 2026 Apr 30 17:56 | 2026 Apr 30 13:31:34 | 64.8386 | 0.01255 | 21.7455 | 293.8887 | 64.9040 | 13.32065 | – |
| 2026 Apr 29 17:57 | 2026 Apr 22 21:44:26 | 64.8396 | 0.01255 | 22.9624 | 295.7863 | 64.9040 | 13.32065 | – |
| 2026 Apr 28 17:56 | 2026 Apr 22 21:44:26 | 64.8396 | 0.01255 | 22.9624 | 295.7863 | 64.9040 | 13.32065 | – |
| 2026 Apr 27 17:58 | 2026 Apr 22 21:44:26 | 64.8396 | 0.01255 | 22.9624 | 295.7863 | 64.9040 | 13.32065 | – |
| 2026 Apr 26 17:58 | 2026 Apr 22 21:44:26 | 64.8396 | 0.01255 | 22.9624 | 295.7863 | 64.9040 | 13.32065 | – |
| 2026 Apr 25 17:58 | 2026 Apr 22 21:44:26 | 64.8396 | 0.01255 | 22.9624 | 295.7863 | 64.9040 | 13.32065 | – |
| 2026 Apr 24 17:59 | 2026 Apr 22 21:44:26 | 64.8396 | 0.01255 | 22.9624 | 295.7863 | 64.9040 | 13.32065 | – |
| 2026 Apr 23 17:57 | 2026 Apr 19 09:03:17 | 64.8395 | 0.01257 | 23.5230 | 296.6422 | 64.9040 | 13.32065 | – |
| 2026 Apr 22 17:57 | 2026 Apr 19 09:03:17 | 64.8395 | 0.01257 | 23.5230 | 296.6422 | 64.9040 | 13.32065 | – |
| 2026 Apr 21 17:57 | 2026 Apr 19 09:03:17 | 64.8395 | 0.01257 | 23.5230 | 296.6422 | 64.9040 | 13.32065 | – |
| 2026 Apr 20 17:57 | 2026 Apr 19 09:03:17 | 64.8395 | 0.01257 | 23.5230 | 296.6422 | 64.9040 | 13.32065 | – |
| 2026 Apr 19 17:58 | 2026 Apr 19 09:03:17 | 64.8395 | 0.01257 | 23.5230 | 296.6422 | 64.9040 | 13.32065 | – |
| 2026 Apr 18 17:56 | 2026 Apr 13 03:30:12 | 64.8399 | 0.01259 | 0.5132 | 298.1137 | 64.9040 | 13.32065 | – |
| 2026 Apr 16 17:57 | 2026 Apr 13 03:30:12 | 64.8399 | 0.01259 | 0.5132 | 298.1137 | 64.9040 | 13.32065 | – |
| 2026 Apr 14 17:57 | 2026 Apr 13 03:30:12 | 64.8399 | 0.01259 | 0.5132 | 298.1137 | 64.9040 | 13.32065 | – |
| 2026 Apr 13 17:57 | 2026 Apr 13 03:30:12 | 64.8399 | 0.01259 | 0.5132 | 298.1137 | 64.9040 | 13.32065 | – |
| 2026 Apr 12 17:57 | 2026 Apr 08 11:47:24 | 64.8400 | 0.01260 | 1.2528 | 299.1974 | 64.9040 | 13.32065 | – |
| 2026 Apr 11 17:57 | 2026 Apr 08 11:47:24 | 64.8400 | 0.01260 | 1.2528 | 299.1974 | 64.9040 | 13.32065 | – |
| 2026 Apr 10 17:58 | 2026 Apr 08 11:47:24 | 64.8400 | 0.01260 | 1.2528 | 299.1974 | 64.9040 | 13.32065 | – |
| 2026 Apr 09 18:01 | 2026 Apr 08 11:47:24 | 64.8400 | 0.01260 | 1.2528 | 299.1974 | 64.9040 | 13.32065 | – |
| 2026 Apr 08 17:57 | 2026 Apr 08 11:47:24 | 64.8400 | 0.01260 | 1.2528 | 299.1974 | 64.9040 | 13.32065 | – |
| 2026 Apr 07 17:57 | 2026 Apr 01 03:12:37 | 64.8393 | 0.01261 | 2.4218 | 300.8635 | 64.9040 | 13.32065 | – |
| 2026 Apr 06 17:57 | 2026 Apr 01 03:12:37 | 64.8393 | 0.01261 | 2.4218 | 300.8635 | 64.9040 | 13.32065 | – |